Página principal
METAR-TAF:

METAR-TAF

Aeroportos :

Cartum, Sudão

Aeroporto Internacional de Cartum

latitude: 15-36N, longitude: 032-33E, altura: 382 m

Observação actual do tempo

O boletim foi feito há 31 minutos, às 13:00 UTC
Vento 6 kt de noroeste
Temperatura 39°C
Humidade 9%
Pressão 1006 hPa
Visibilidade 10 km ou mais
sem nuvens abaixo de 1500 metros e sem cumulonimbus

METAR: HSSS 211300Z 32006KT CAVOK 39/01 Q1006 NOSIG

Hora: 16:31 (13:31 UTC)

Previsão

O boletim foi feito há 26 horas e 31 minutos, às 11:00 UTC
Previsão válida de 20 às 12 UTC a 21 às 18 UTC
Vento 6 kt de nor-nordeste com rajadas de 18 kt
Visibilidade 10 km ou mais
sem nuvens abaixo de 1500 metros e sem cumulonimbus
Temporariamente
de 20 às 18 UTC a 20 às 21 UTC
Visibilidade: 6000 m
Céu limpo
Probabilidade 30%
de 21 às 04 UTC a 21 às 07 UTC
Visibilidade: 6000 m
Céu limpo

TAF: HSSS 201100Z 2012/2118 03006G18KT CAVOK TEMPO 2018/2021 6000 SKC PROB30 2104/2107 6000 SKC

Observações e previsões do tempo de mais de 4000 aeroportos (mensagens METAR e TAF).

As estações disponíveis são os pontos amarelos e vermelhos sobre o mapa.

Mova o rato sobre o mapa para ver o nome da estação.

Depois clique no ponto para visualizar as observações e previsões meteorológicas.

Para alterar o mapa : clique nos botões verdes com uma cruz preta para aumentar o zoom; no botão verde com uma pitada de zoom; ou nas setas verdes para mapas adjacentes.


METAR-TAF: